sensor_id;sensor_type;location;lat;lon;timestamp;temperature;humidity
7046;DHT22;3564;53.326;10.356;2023-07-16T00:01:02;24.80;96.00
7046;DHT22;3564;53.326;10.356;2023-07-16T00:03:28;24.90;96.10
7046;DHT22;3564;53.326;10.356;2023-07-16T00:05:53;24.90;96.10
7046;DHT22;3564;53.326;10.356;2023-07-16T00:08:19;24.90;96.00
7046;DHT22;3564;53.326;10.356;2023-07-16T00:10:44;24.90;96.10
7046;DHT22;3564;53.326;10.356;2023-07-16T00:13:10;24.90;96.20
7046;DHT22;3564;53.326;10.356;2023-07-16T00:15:36;24.90;96.20
7046;DHT22;3564;53.326;10.356;2023-07-16T00:18:01;25.00;96.50
7046;DHT22;3564;53.326;10.356;2023-07-16T00:20:27;25.00;96.30
7046;DHT22;3564;53.326;10.356;2023-07-16T00:22:54;25.00;96.30
7046;DHT22;3564;53.326;10.356;2023-07-16T00:25:19;24.80;96.30
7046;DHT22;3564;53.326;10.356;2023-07-16T00:27:45;24.80;96.40
7046;DHT22;3564;53.326;10.356;2023-07-16T00:30:11;24.70;96.70
7046;DHT22;3564;53.326;10.356;2023-07-16T00:32:39;24.70;96.60
7046;DHT22;3564;53.326;10.356;2023-07-16T00:35:05;24.60;96.70
7046;DHT22;3564;53.326;10.356;2023-07-16T00:37:31;24.60;96.90
7046;DHT22;3564;53.326;10.356;2023-07-16T00:39:56;24.60;96.90
7046;DHT22;3564;53.326;10.356;2023-07-16T00:42:22;24.60;96.90
7046;DHT22;3564;53.326;10.356;2023-07-16T00:44:48;24.60;96.90
7046;DHT22;3564;53.326;10.356;2023-07-16T00:47:13;24.60;96.90
7046;DHT22;3564;53.326;10.356;2023-07-16T00:49:39;24.40;97.10
7046;DHT22;3564;53.326;10.356;2023-07-16T00:52:06;24.40;97.10
7046;DHT22;3564;53.326;10.356;2023-07-16T00:54:32;24.40;97.30
7046;DHT22;3564;53.326;10.356;2023-07-16T00:56:58;24.20;97.50
7046;DHT22;3564;53.326;10.356;2023-07-16T00:59:24;24.30;97.70
7046;DHT22;3564;53.326;10.356;2023-07-16T01:01:49;24.30;97.90
7046;DHT22;3564;53.326;10.356;2023-07-16T01:04:15;24.40;98.40
7046;DHT22;3564;53.326;10.356;2023-07-16T01:06:45;24.40;98.70
7046;DHT22;3564;53.326;10.356;2023-07-16T01:09:16;24.50;99.10
7046;DHT22;3564;53.326;10.356;2023-07-16T01:11:43;24.50;99.70
7046;DHT22;3564;53.326;10.356;2023-07-16T01:14:10;24.50;99.90
7046;DHT22;3564;53.326;10.356;2023-07-16T01:16:36;24.50;99.90
7046;DHT22;3564;53.326;10.356;2023-07-16T01:19:02;24.50;99.90
7046;DHT22;3564;53.326;10.356;2023-07-16T01:21:35;24.40;99.90
7046;DHT22;3564;53.326;10.356;2023-07-16T01:30:03;24.30;99.70
7046;DHT22;3564;53.326;10.356;2023-07-16T01:32:33;24.20;99.70
7046;DHT22;3564;53.326;10.356;2023-07-16T01:34:59;24.20;99.50
7046;DHT22;3564;53.326;10.356;2023-07-16T01:37:25;24.10;99.20
7046;DHT22;3564;53.326;10.356;2023-07-16T01:39:51;24.10;99.60
7046;DHT22;3564;53.326;10.356;2023-07-16T01:42:16;24.10;99.80
7046;DHT22;3564;53.326;10.356;2023-07-16T01:44:42;24.20;99.90
7046;DHT22;3564;53.326;10.356;2023-07-16T01:49:44;24.20;99.90
7046;DHT22;3564;53.326;10.356;2023-07-16T01:52:10;24.20;99.90
7046;DHT22;3564;53.326;10.356;2023-07-16T01:54:36;24.10;99.90
7046;DHT22;3564;53.326;10.356;2023-07-16T01:57:02;24.10;99.90
7046;DHT22;3564;53.326;10.356;2023-07-16T01:59:27;24.10;99.90
7046;DHT22;3564;53.326;10.356;2023-07-16T02:01:53;24.10;99.90
7046;DHT22;3564;53.326;10.356;2023-07-16T02:04:20;24.10;99.90
7046;DHT22;3564;53.326;10.356;2023-07-16T02:06:48;24.10;99.90
7046;DHT22;3564;53.326;10.356;2023-07-16T02:09:14;24.10;99.90
7046;DHT22;3564;53.326;10.356;2023-07-16T02:11:40;24.00;99.90
7046;DHT22;3564;53.326;10.356;2023-07-16T02:14:05;24.00;99.90
7046;DHT22;3564;53.326;10.356;2023-07-16T02:16:31;24.00;99.90
7046;DHT22;3564;53.326;10.356;2023-07-16T02:18:56;24.00;99.70
7046;DHT22;3564;53.326;10.356;2023-07-16T02:21:22;24.00;99.50
7046;DHT22;3564;53.326;10.356;2023-07-16T02:23:47;24.00;99.60
7046;DHT22;3564;53.326;10.356;2023-07-16T02:26:13;24.00;99.90
7046;DHT22;3564;53.326;10.356;2023-07-16T02:28:38;24.00;99.90
7046;DHT22;3564;53.326;10.356;2023-07-16T02:31:04;23.90;99.90
7046;DHT22;3564;53.326;10.356;2023-07-16T02:33:30;23.90;99.90
7046;DHT22;3564;53.326;10.356;2023-07-16T02:35:56;23.90;99.90
7046;DHT22;3564;53.326;10.356;2023-07-16T02:38:21;23.90;99.90
7046;DHT22;3564;53.326;10.356;2023-07-16T02:40:48;23.80;99.90
7046;DHT22;3564;53.326;10.356;2023-07-16T02:43:14;23.80;99.90
7046;DHT22;3564;53.326;10.356;2023-07-16T02:45:40;23.80;99.90
7046;DHT22;3564;53.326;10.356;2023-07-16T02:48:06;23.70;99.90
7046;DHT22;3564;53.326;10.356;2023-07-16T02:50:36;23.70;99.90
7046;DHT22;3564;53.326;10.356;2023-07-16T02:53:04;23.70;99.90
7046;DHT22;3564;53.326;10.356;2023-07-16T02:55:31;23.70;99.90
7046;DHT22;3564;53.326;10.356;2023-07-16T02:57:56;23.70;99.90
7046;DHT22;3564;53.326;10.356;2023-07-16T03:00:22;23.60;99.90
7046;DHT22;3564;53.326;10.356;2023-07-16T03:02:48;23.60;99.90
7046;DHT22;3564;53.326;10.356;2023-07-16T03:05:15;23.50;99.90
7046;DHT22;3564;53.326;10.356;2023-07-16T03:07:41;23.50;99.90
7046;DHT22;3564;53.326;10.356;2023-07-16T03:10:07;23.40;99.90
7046;DHT22;3564;53.326;10.356;2023-07-16T03:12:32;23.40;99.90
7046;DHT22;3564;53.326;10.356;2023-07-16T03:14:58;23.40;99.90
7046;DHT22;3564;53.326;10.356;2023-07-16T03:17:24;23.30;99.90
7046;DHT22;3564;53.326;10.356;2023-07-16T03:19:49;23.30;99.90
7046;DHT22;3564;53.326;10.356;2023-07-16T03:22:15;23.30;99.90
7046;DHT22;3564;53.326;10.356;2023-07-16T03:24:40;23.30;99.90
7046;DHT22;3564;53.326;10.356;2023-07-16T03:27:06;23.30;99.90
7046;DHT22;3564;53.326;10.356;2023-07-16T03:29:35;23.30;99.90
7046;DHT22;3564;53.326;10.356;2023-07-16T03:32:00;23.20;99.90
7046;DHT22;3564;53.326;10.356;2023-07-16T03:34:26;23.20;99.90
7046;DHT22;3564;53.326;10.356;2023-07-16T03:36:51;23.20;99.90
7046;DHT22;3564;53.326;10.356;2023-07-16T03:39:17;23.20;99.90
7046;DHT22;3564;53.326;10.356;2023-07-16T03:41:43;23.20;99.90
7046;DHT22;3564;53.326;10.356;2023-07-16T03:44:08;23.20;99.90
7046;DHT22;3564;53.326;10.356;2023-07-16T03:46:34;23.10;99.90
7046;DHT22;3564;53.326;10.356;2023-07-16T03:49:00;23.10;99.90
7046;DHT22;3564;53.326;10.356;2023-07-16T03:51:25;23.10;99.90
7046;DHT22;3564;53.326;10.356;2023-07-16T03:53:51;23.00;99.90
7046;DHT22;3564;53.326;10.356;2023-07-16T03:56:16;23.00;99.90
7046;DHT22;3564;53.326;10.356;2023-07-16T03:58:42;23.00;99.90
7046;DHT22;3564;53.326;10.356;2023-07-16T04:01:07;23.00;99.90
7046;DHT22;3564;53.326;10.356;2023-07-16T04:03:33;23.00;99.90
7046;DHT22;3564;53.326;10.356;2023-07-16T04:06:03;23.00;99.90
7046;DHT22;3564;53.326;10.356;2023-07-16T04:08:29;22.90;99.90
7046;DHT22;3564;53.326;10.356;2023-07-16T04:10:55;22.90;99.90
7046;DHT22;3564;53.326;10.356;2023-07-16T04:13:20;22.90;99.90
7046;DHT22;3564;53.326;10.356;2023-07-16T04:15:46;22.80;99.90
7046;DHT22;3564;53.326;10.356;2023-07-16T04:18:11;22.80;99.90
7046;DHT22;3564;53.326;10.356;2023-07-16T04:20:37;22.80;99.90
7046;DHT22;3564;53.326;10.356;2023-07-16T04:23:03;22.70;99.90
7046;DHT22;3564;53.326;10.356;2023-07-16T04:25:28;22.50;99.90
7046;DHT22;3564;53.326;10.356;2023-07-16T04:27:55;22.60;99.90
7046;DHT22;3564;53.326;10.356;2023-07-16T04:30:23;22.60;99.90
7046;DHT22;3564;53.326;10.356;2023-07-16T04:32:48;22.50;99.90
7046;DHT22;3564;53.326;10.356;2023-07-16T04:35:14;22.60;99.90
7046;DHT22;3564;53.326;10.356;2023-07-16T04:37:39;22.60;99.90
7046;DHT22;3564;53.326;10.356;2023-07-16T04:40:06;22.40;99.90
7046;DHT22;3564;53.326;10.356;2023-07-16T04:42:31;22.40;99.90
7046;DHT22;3564;53.326;10.356;2023-07-16T04:44:57;22.30;99.90
7046;DHT22;3564;53.326;10.356;2023-07-16T04:47:22;22.20;99.90
7046;DHT22;3564;53.326;10.356;2023-07-16T04:49:48;22.20;99.90
7046;DHT22;3564;53.326;10.356;2023-07-16T04:52:13;22.20;99.90
7046;DHT22;3564;53.326;10.356;2023-07-16T04:54:39;22.30;99.90
7046;DHT22;3564;53.326;10.356;2023-07-16T04:57:06;22.30;99.90
7046;DHT22;3564;53.326;10.356;2023-07-16T04:59:33;22.40;99.90
7046;DHT22;3564;53.326;10.356;2023-07-16T05:02:06;22.60;99.90
7046;DHT22;3564;53.326;10.356;2023-07-16T05:04:33;22.60;99.90
7046;DHT22;3564;53.326;10.356;2023-07-16T05:06:58;22.60;99.90
7046;DHT22;3564;53.326;10.356;2023-07-16T05:09:24;22.60;99.90
7046;DHT22;3564;53.326;10.356;2023-07-16T05:11:49;22.60;99.90
7046;DHT22;3564;53.326;10.356;2023-07-16T05:14:17;22.70;99.90
7046;DHT22;3564;53.326;10.356;2023-07-16T05:16:43;22.60;99.90
7046;DHT22;3564;53.326;10.356;2023-07-16T05:19:09;22.60;99.90
7046;DHT22;3564;53.326;10.356;2023-07-16T05:21:35;22.60;99.90
7046;DHT22;3564;53.326;10.356;2023-07-16T05:24:00;22.70;99.90
7046;DHT22;3564;53.326;10.356;2023-07-16T05:26:26;22.70;99.90
7046;DHT22;3564;53.326;10.356;2023-07-16T05:28:52;22.70;99.90
7046;DHT22;3564;53.326;10.356;2023-07-16T05:31:17;22.70;99.90
7046;DHT22;3564;53.326;10.356;2023-07-16T05:33:43;22.70;99.90
7046;DHT22;3564;53.326;10.356;2023-07-16T05:36:08;22.70;99.90
7046;DHT22;3564;53.326;10.356;2023-07-16T05:38:34;22.60;99.90
7046;DHT22;3564;53.326;10.356;2023-07-16T05:41:03;22.60;99.90
7046;DHT22;3564;53.326;10.356;2023-07-16T05:43:30;22.50;99.90
7046;DHT22;3564;53.326;10.356;2023-07-16T05:45:55;22.60;99.90
7046;DHT22;3564;53.326;10.356;2023-07-16T05:48:21;22.50;99.90
7046;DHT22;3564;53.326;10.356;2023-07-16T05:50:47;22.60;99.90
7046;DHT22;3564;53.326;10.356;2023-07-16T05:53:12;22.60;99.90
7046;DHT22;3564;53.326;10.356;2023-07-16T05:55:41;22.60;99.90
7046;DHT22;3564;53.326;10.356;2023-07-16T05:58:07;22.50;99.90
7046;DHT22;3564;53.326;10.356;2023-07-16T06:00:34;22.40;99.90
7046;DHT22;3564;53.326;10.356;2023-07-16T06:03:00;22.40;99.90
7046;DHT22;3564;53.326;10.356;2023-07-16T06:05:26;22.40;99.90
7046;DHT22;3564;53.326;10.356;2023-07-16T06:07:53;22.40;99.90
7046;DHT22;3564;53.326;10.356;2023-07-16T06:10:19;22.40;99.90
7046;DHT22;3564;53.326;10.356;2023-07-16T06:12:44;22.30;99.90
7046;DHT22;3564;53.326;10.356;2023-07-16T06:15:10;22.30;99.90
7046;DHT22;3564;53.326;10.356;2023-07-16T06:17:35;22.40;99.90
7046;DHT22;3564;53.326;10.356;2023-07-16T06:20:03;22.40;99.90
7046;DHT22;3564;53.326;10.356;2023-07-16T06:22:33;22.30;99.90
7046;DHT22;3564;53.326;10.356;2023-07-16T06:24:58;22.40;99.90
7046;DHT22;3564;53.326;10.356;2023-07-16T06:27:25;22.50;99.90
7046;DHT22;3564;53.326;10.356;2023-07-16T06:29:51;22.60;99.90
7046;DHT22;3564;53.326;10.356;2023-07-16T06:32:16;22.60;99.90
7046;DHT22;3564;53.326;10.356;2023-07-16T06:34:42;22.60;99.90
7046;DHT22;3564;53.326;10.356;2023-07-16T06:37:07;22.70;99.90
7046;DHT22;3564;53.326;10.356;2023-07-16T06:39:33;22.70;99.90
7046;DHT22;3564;53.326;10.356;2023-07-16T06:41:58;22.70;99.90
7046;DHT22;3564;53.326;10.356;2023-07-16T06:44:24;22.70;99.90
7046;DHT22;3564;53.326;10.356;2023-07-16T06:46:50;22.80;99.90
7046;DHT22;3564;53.326;10.356;2023-07-16T06:49:15;22.80;99.90
7046;DHT22;3564;53.326;10.356;2023-07-16T06:51:41;22.90;99.90
7046;DHT22;3564;53.326;10.356;2023-07-16T06:54:07;22.90;99.90
7046;DHT22;3564;53.326;10.356;2023-07-16T06:56:33;22.90;99.90
7046;DHT22;3564;53.326;10.356;2023-07-16T06:58:58;23.00;99.90
7046;DHT22;3564;53.326;10.356;2023-07-16T07:01:24;23.00;99.90
7046;DHT22;3564;53.326;10.356;2023-07-16T07:03:50;22.90;99.90
7046;DHT22;3564;53.326;10.356;2023-07-16T07:06:15;23.00;99.90
7046;DHT22;3564;53.326;10.356;2023-07-16T07:08:41;23.10;99.90
7046;DHT22;3564;53.326;10.356;2023-07-16T07:11:06;23.20;99.90
7046;DHT22;3564;53.326;10.356;2023-07-16T07:13:32;23.40;99.90
7046;DHT22;3564;53.326;10.356;2023-07-16T07:15:57;23.50;99.90
7046;DHT22;3564;53.326;10.356;2023-07-16T07:18:23;23.50;99.70
7046;DHT22;3564;53.326;10.356;2023-07-16T07:20:48;23.60;99.90
7046;DHT22;3564;53.326;10.356;2023-07-16T07:23:15;23.70;99.90
7046;DHT22;3564;53.326;10.356;2023-07-16T07:25:41;23.70;99.90
7046;DHT22;3564;53.326;10.356;2023-07-16T07:28:07;23.90;99.30
7046;DHT22;3564;53.326;10.356;2023-07-16T07:30:32;23.90;97.70
7046;DHT22;3564;53.326;10.356;2023-07-16T07:32:58;23.70;97.50
7046;DHT22;3564;53.326;10.356;2023-07-16T07:35:23;23.70;96.40
7046;DHT22;3564;53.326;10.356;2023-07-16T07:37:49;23.70;96.90
7046;DHT22;3564;53.326;10.356;2023-07-16T07:40:15;23.70;97.00
7046;DHT22;3564;53.326;10.356;2023-07-16T07:42:41;23.70;96.90
7046;DHT22;3564;53.326;10.356;2023-07-16T07:45:06;23.70;97.00
7046;DHT22;3564;53.326;10.356;2023-07-16T07:47:32;23.70;96.90
7046;DHT22;3564;53.326;10.356;2023-07-16T07:49:58;23.70;97.30
7046;DHT22;3564;53.326;10.356;2023-07-16T07:52:23;23.60;96.80
7046;DHT22;3564;53.326;10.356;2023-07-16T07:54:49;23.50;97.00
7046;DHT22;3564;53.326;10.356;2023-07-16T07:57:15;23.40;97.20
7046;DHT22;3564;53.326;10.356;2023-07-16T07:59:41;23.30;97.10
7046;DHT22;3564;53.326;10.356;2023-07-16T08:02:06;23.40;97.20
7046;DHT22;3564;53.326;10.356;2023-07-16T08:04:33;23.30;97.20
7046;DHT22;3564;53.326;10.356;2023-07-16T08:06:58;23.40;96.60
7046;DHT22;3564;53.326;10.356;2023-07-16T08:09:25;23.40;96.60
7046;DHT22;3564;53.326;10.356;2023-07-16T08:11:52;23.60;96.90
7046;DHT22;3564;53.326;10.356;2023-07-16T08:14:18;23.60;95.90
7046;DHT22;3564;53.326;10.356;2023-07-16T08:16:43;23.50;96.50
7046;DHT22;3564;53.326;10.356;2023-07-16T08:19:09;23.60;95.60
7046;DHT22;3564;53.326;10.356;2023-07-16T08:21:35;23.60;95.00
7046;DHT22;3564;53.326;10.356;2023-07-16T08:24:01;23.60;95.00
7046;DHT22;3564;53.326;10.356;2023-07-16T08:26:27;23.60;95.00
7046;DHT22;3564;53.326;10.356;2023-07-16T08:28:52;23.70;95.10
7046;DHT22;3564;53.326;10.356;2023-07-16T08:31:18;23.80;94.80
7046;DHT22;3564;53.326;10.356;2023-07-16T08:33:43;23.80;95.00
7046;DHT22;3564;53.326;10.356;2023-07-16T08:36:10;24.00;94.20
7046;DHT22;3564;53.326;10.356;2023-07-16T08:38:35;24.00;93.80
7046;DHT22;3564;53.326;10.356;2023-07-16T08:41:01;24.00;93.60
7046;DHT22;3564;53.326;10.356;2023-07-16T08:43:28;23.90;93.60
7046;DHT22;3564;53.326;10.356;2023-07-16T08:45:55;23.80;93.60
7046;DHT22;3564;53.326;10.356;2023-07-16T08:48:21;23.60;94.10
7046;DHT22;3564;53.326;10.356;2023-07-16T08:50:48;23.70;94.70
7046;DHT22;3564;53.326;10.356;2023-07-16T08:53:18;23.70;94.70
7046;DHT22;3564;53.326;10.356;2023-07-16T08:55:45;23.60;94.60
7046;DHT22;3564;53.326;10.356;2023-07-16T08:58:13;23.70;94.90
7046;DHT22;3564;53.326;10.356;2023-07-16T09:00:41;23.50;94.50
7046;DHT22;3564;53.326;10.356;2023-07-16T09:03:10;23.60;94.30
7046;DHT22;3564;53.326;10.356;2023-07-16T09:05:36;23.60;94.40
7046;DHT22;3564;53.326;10.356;2023-07-16T09:08:02;23.80;94.60
7046;DHT22;3564;53.326;10.356;2023-07-16T09:10:28;24.00;94.10
7046;DHT22;3564;53.326;10.356;2023-07-16T09:12:57;24.30;93.80
7046;DHT22;3564;53.326;10.356;2023-07-16T09:15:23;24.50;93.00
7046;DHT22;3564;53.326;10.356;2023-07-16T09:17:49;24.60;93.00
7046;DHT22;3564;53.326;10.356;2023-07-16T09:20:16;24.70;91.40
7046;DHT22;3564;53.326;10.356;2023-07-16T09:22:43;24.80;91.30
7046;DHT22;3564;53.326;10.356;2023-07-16T09:25:09;24.80;91.30
7046;DHT22;3564;53.326;10.356;2023-07-16T09:27:36;24.80;90.30
7046;DHT22;3564;53.326;10.356;2023-07-16T09:30:04;24.80;89.10
7046;DHT22;3564;53.326;10.356;2023-07-16T09:32:38;24.90;87.80
7046;DHT22;3564;53.326;10.356;2023-07-16T09:35:11;25.00;86.80
7046;DHT22;3564;53.326;10.356;2023-07-16T09:37:38;25.00;88.10
7046;DHT22;3564;53.326;10.356;2023-07-16T09:40:06;25.10;87.90
7046;DHT22;3564;53.326;10.356;2023-07-16T09:42:39;25.10;86.10
7046;DHT22;3564;53.326;10.356;2023-07-16T09:45:18;25.20;87.30
7046;DHT22;3564;53.326;10.356;2023-07-16T09:47:44;25.20;86.20
7046;DHT22;3564;53.326;10.356;2023-07-16T09:50:11;25.30;85.30
7046;DHT22;3564;53.326;10.356;2023-07-16T09:52:37;25.50;84.30
7046;DHT22;3564;53.326;10.356;2023-07-16T09:55:04;25.50;82.50
7046;DHT22;3564;53.326;10.356;2023-07-16T09:57:35;25.50;83.40
7046;DHT22;3564;53.326;10.356;2023-07-16T10:00:11;25.60;83.00
7046;DHT22;3564;53.326;10.356;2023-07-16T10:02:41;25.60;84.20
7046;DHT22;3564;53.326;10.356;2023-07-16T10:05:17;25.60;81.60
7046;DHT22;3564;53.326;10.356;2023-07-16T10:07:50;25.60;82.00
7046;DHT22;3564;53.326;10.356;2023-07-16T10:10:16;25.80;84.10
7046;DHT22;3564;53.326;10.356;2023-07-16T10:12:54;25.70;82.40
7046;DHT22;3564;53.326;10.356;2023-07-16T10:15:28;25.70;83.80
7046;DHT22;3564;53.326;10.356;2023-07-16T10:17:54;25.80;82.80
7046;DHT22;3564;53.326;10.356;2023-07-16T10:20:37;25.80;82.60
7046;DHT22;3564;53.326;10.356;2023-07-16T10:23:16;25.80;82.30
7046;DHT22;3564;53.326;10.356;2023-07-16T10:26:01;25.80;82.30
7046;DHT22;3564;53.326;10.356;2023-07-16T10:28:34;25.80;82.90
7046;DHT22;3564;53.326;10.356;2023-07-16T10:30:59;25.70;82.90
7046;DHT22;3564;53.326;10.356;2023-07-16T10:33:25;25.60;82.30
7046;DHT22;3564;53.326;10.356;2023-07-16T10:35:51;25.60;82.10
7046;DHT22;3564;53.326;10.356;2023-07-16T10:38:17;25.60;83.00
7046;DHT22;3564;53.326;10.356;2023-07-16T10:40:44;25.70;83.70
7046;DHT22;3564;53.326;10.356;2023-07-16T10:43:11;25.70;83.40
7046;DHT22;3564;53.326;10.356;2023-07-16T10:45:36;25.90;84.40
7046;DHT22;3564;53.326;10.356;2023-07-16T10:48:02;26.10;85.90
7046;DHT22;3564;53.326;10.356;2023-07-16T10:50:28;26.20;82.50
7046;DHT22;3564;53.326;10.356;2023-07-16T10:52:55;26.30;81.50
7046;DHT22;3564;53.326;10.356;2023-07-16T10:55:21;26.40;81.10
7046;DHT22;3564;53.326;10.356;2023-07-16T10:57:49;26.40;81.70
7046;DHT22;3564;53.326;10.356;2023-07-16T11:00:16;26.50;82.50
7046;DHT22;3564;53.326;10.356;2023-07-16T11:02:43;26.60;81.00
7046;DHT22;3564;53.326;10.356;2023-07-16T11:05:16;26.60;80.90
7046;DHT22;3564;53.326;10.356;2023-07-16T11:07:51;26.60;80.90
7046;DHT22;3564;53.326;10.356;2023-07-16T11:10:17;26.70;80.50
7046;DHT22;3564;53.326;10.356;2023-07-16T11:12:43;26.80;80.80
7046;DHT22;3564;53.326;10.356;2023-07-16T11:15:10;26.80;79.80
7046;DHT22;3564;53.326;10.356;2023-07-16T11:17:38;26.90;80.30
7046;DHT22;3564;53.326;10.356;2023-07-16T11:20:07;27.00;80.10
7046;DHT22;3564;53.326;10.356;2023-07-16T11:22:32;27.10;79.20
7046;DHT22;3564;53.326;10.356;2023-07-16T11:24:58;27.20;80.10
7046;DHT22;3564;53.326;10.356;2023-07-16T11:27:26;27.20;79.60
7046;DHT22;3564;53.326;10.356;2023-07-16T11:29:54;27.30;79.40
7046;DHT22;3564;53.326;10.356;2023-07-16T11:32:33;27.20;78.80
7046;DHT22;3564;53.326;10.356;2023-07-16T11:35:00;27.20;78.80
7046;DHT22;3564;53.326;10.356;2023-07-16T11:37:29;27.20;78.70
7046;DHT22;3564;53.326;10.356;2023-07-16T11:40:00;27.20;77.70
7046;DHT22;3564;53.326;10.356;2023-07-16T11:42:36;27.20;79.30
7046;DHT22;3564;53.326;10.356;2023-07-16T11:45:03;27.30;78.20
7046;DHT22;3564;53.326;10.356;2023-07-16T11:47:29;27.30;77.50
7046;DHT22;3564;53.326;10.356;2023-07-16T11:49:55;27.30;77.40
7046;DHT22;3564;53.326;10.356;2023-07-16T11:54:58;27.10;78.30
7046;DHT22;3564;53.326;10.356;2023-07-16T11:57:29;27.00;78.60
7046;DHT22;3564;53.326;10.356;2023-07-16T11:59:55;26.90;78.20
7046;DHT22;3564;53.326;10.356;2023-07-16T12:02:21;26.90;79.40
7046;DHT22;3564;53.326;10.356;2023-07-16T12:04:48;27.00;79.10
7046;DHT22;3564;53.326;10.356;2023-07-16T12:07:14;27.10;78.90
7046;DHT22;3564;53.326;10.356;2023-07-16T12:09:39;27.20;79.30
7046;DHT22;3564;53.326;10.356;2023-07-16T12:12:05;27.10;78.00
7046;DHT22;3564;53.326;10.356;2023-07-16T12:14:31;27.10;77.50
7046;DHT22;3564;53.326;10.356;2023-07-16T12:16:57;27.10;77.90
7046;DHT22;3564;53.326;10.356;2023-07-16T12:19:23;26.90;79.40
7046;DHT22;3564;53.326;10.356;2023-07-16T12:21:49;26.90;78.90
7046;DHT22;3564;53.326;10.356;2023-07-16T12:24:16;27.10;79.20
7046;DHT22;3564;53.326;10.356;2023-07-16T12:26:42;27.10;78.00
7046;DHT22;3564;53.326;10.356;2023-07-16T12:29:08;27.00;77.90
7046;DHT22;3564;53.326;10.356;2023-07-16T12:31:33;26.90;77.50
7046;DHT22;3564;53.326;10.356;2023-07-16T12:34:00;26.90;78.00
7046;DHT22;3564;53.326;10.356;2023-07-16T12:36:29;26.90;77.50
7046;DHT22;3564;53.326;10.356;2023-07-16T12:38:55;26.90;77.50
7046;DHT22;3564;53.326;10.356;2023-07-16T12:41:21;26.90;78.20
7046;DHT22;3564;53.326;10.356;2023-07-16T12:43:47;26.90;78.50
7046;DHT22;3564;53.326;10.356;2023-07-16T12:46:12;26.90;78.10
7046;DHT22;3564;53.326;10.356;2023-07-16T12:48:38;26.90;78.10
7046;DHT22;3564;53.326;10.356;2023-07-16T12:51:03;26.90;78.30
7046;DHT22;3564;53.326;10.356;2023-07-16T12:53:29;26.90;77.10
7046;DHT22;3564;53.326;10.356;2023-07-16T12:55:55;26.90;77.50
7046;DHT22;3564;53.326;10.356;2023-07-16T12:58:20;26.90;77.00
7046;DHT22;3564;53.326;10.356;2023-07-16T13:00:46;26.90;78.10
7046;DHT22;3564;53.326;10.356;2023-07-16T13:03:11;27.00;79.00
7046;DHT22;3564;53.326;10.356;2023-07-16T13:05:39;27.00;77.40
7046;DHT22;3564;53.326;10.356;2023-07-16T13:08:05;27.10;78.40
7046;DHT22;3564;53.326;10.356;2023-07-16T13:10:31;27.10;77.10
7046;DHT22;3564;53.326;10.356;2023-07-16T13:12:56;27.20;77.60
7046;DHT22;3564;53.326;10.356;2023-07-16T13:15:22;27.30;77.80
7046;DHT22;3564;53.326;10.356;2023-07-16T13:17:47;27.30;76.40
7046;DHT22;3564;53.326;10.356;2023-07-16T13:20:18;27.40;77.10
7046;DHT22;3564;53.326;10.356;2023-07-16T13:22:45;27.40;77.00
7046;DHT22;3564;53.326;10.356;2023-07-16T13:25:10;27.30;76.80
7046;DHT22;3564;53.326;10.356;2023-07-16T13:27:36;27.40;77.20
7046;DHT22;3564;53.326;10.356;2023-07-16T13:30:02;27.40;78.00
7046;DHT22;3564;53.326;10.356;2023-07-16T13:32:27;27.50;78.00
7046;DHT22;3564;53.326;10.356;2023-07-16T13:34:54;27.50;76.70
7046;DHT22;3564;53.326;10.356;2023-07-16T13:37:21;27.40;76.40
7046;DHT22;3564;53.326;10.356;2023-07-16T13:39:46;27.40;77.00
7046;DHT22;3564;53.326;10.356;2023-07-16T13:42:12;27.50;78.00
7046;DHT22;3564;53.326;10.356;2023-07-16T13:44:37;27.70;77.90
7046;DHT22;3564;53.326;10.356;2023-07-16T13:47:03;27.70;77.20
7046;DHT22;3564;53.326;10.356;2023-07-16T13:49:29;27.80;76.70
7046;DHT22;3564;53.326;10.356;2023-07-16T13:51:55;27.90;77.30
7046;DHT22;3564;53.326;10.356;2023-07-16T13:54:21;27.90;76.00
7046;DHT22;3564;53.326;10.356;2023-07-16T13:56:47;28.00;75.90
7046;DHT22;3564;53.326;10.356;2023-07-16T13:59:13;27.90;75.60
7046;DHT22;3564;53.326;10.356;2023-07-16T14:01:39;27.80;76.30
7046;DHT22;3564;53.326;10.356;2023-07-16T14:04:05;27.80;75.80
7046;DHT22;3564;53.326;10.356;2023-07-16T14:06:31;27.70;76.00
7046;DHT22;3564;53.326;10.356;2023-07-16T14:08:57;27.70;76.90
7046;DHT22;3564;53.326;10.356;2023-07-16T14:11:23;27.60;76.60
7046;DHT22;3564;53.326;10.356;2023-07-16T14:13:49;27.70;78.40
7046;DHT22;3564;53.326;10.356;2023-07-16T14:16:17;27.60;75.90
7046;DHT22;3564;53.326;10.356;2023-07-16T14:18:43;27.60;76.50
7046;DHT22;3564;53.326;10.356;2023-07-16T14:21:08;27.50;77.10
7046;DHT22;3564;53.326;10.356;2023-07-16T14:23:34;27.50;76.90
7046;DHT22;3564;53.326;10.356;2023-07-16T14:26:00;27.40;76.50
7046;DHT22;3564;53.326;10.356;2023-07-16T14:28:25;27.30;76.00
7046;DHT22;3564;53.326;10.356;2023-07-16T14:30:51;27.30;76.80
7046;DHT22;3564;53.326;10.356;2023-07-16T14:33:18;27.20;77.00
7046;DHT22;3564;53.326;10.356;2023-07-16T14:35:43;27.10;77.60
7046;DHT22;3564;53.326;10.356;2023-07-16T14:38:09;27.20;77.30
7046;DHT22;3564;53.326;10.356;2023-07-16T14:40:34;27.10;77.00
7046;DHT22;3564;53.326;10.356;2023-07-16T14:43:00;27.10;77.60
7046;DHT22;3564;53.326;10.356;2023-07-16T14:45:25;27.20;78.40
7046;DHT22;3564;53.326;10.356;2023-07-16T14:47:51;27.20;76.80
7046;DHT22;3564;53.326;10.356;2023-07-16T14:50:17;27.30;77.30
7046;DHT22;3564;53.326;10.356;2023-07-16T14:52:42;27.30;77.10
7046;DHT22;3564;53.326;10.356;2023-07-16T14:55:08;27.40;77.00
7046;DHT22;3564;53.326;10.356;2023-07-16T14:57:35;27.30;75.70
7046;DHT22;3564;53.326;10.356;2023-07-16T15:00:01;27.40;77.00
7046;DHT22;3564;53.326;10.356;2023-07-16T15:02:27;27.30;76.60
7046;DHT22;3564;53.326;10.356;2023-07-16T15:04:52;27.30;76.20
7046;DHT22;3564;53.326;10.356;2023-07-16T15:07:18;27.30;76.30
7046;DHT22;3564;53.326;10.356;2023-07-16T15:09:44;27.20;77.30
7046;DHT22;3564;53.326;10.356;2023-07-16T15:12:09;27.20;77.00
7046;DHT22;3564;53.326;10.356;2023-07-16T15:14:35;27.10;76.80
7046;DHT22;3564;53.326;10.356;2023-07-16T15:17:01;27.20;77.30
7046;DHT22;3564;53.326;10.356;2023-07-16T15:19:26;27.20;77.40
7046;DHT22;3564;53.326;10.356;2023-07-16T15:21:52;27.20;77.70
7046;DHT22;3564;53.326;10.356;2023-07-16T15:24:17;27.30;77.80
7046;DHT22;3564;53.326;10.356;2023-07-16T15:26:43;27.30;77.70
7046;DHT22;3564;53.326;10.356;2023-07-16T15:29:08;27.30;77.80
7046;DHT22;3564;53.326;10.356;2023-07-16T15:31:34;27.30;77.40
7046;DHT22;3564;53.326;10.356;2023-07-16T15:33:59;27.20;77.10
7046;DHT22;3564;53.326;10.356;2023-07-16T15:36:27;27.10;76.90
7046;DHT22;3564;53.326;10.356;2023-07-16T15:38:53;27.00;76.60
7046;DHT22;3564;53.326;10.356;2023-07-16T15:41:19;27.10;76.90
7046;DHT22;3564;53.326;10.356;2023-07-16T15:43:46;27.20;77.20
7046;DHT22;3564;53.326;10.356;2023-07-16T15:46:15;27.20;76.60
7046;DHT22;3564;53.326;10.356;2023-07-16T15:48:45;27.20;76.60
7046;DHT22;3564;53.326;10.356;2023-07-16T15:51:14;27.20;76.80